sensor_id;sensor_type;location;lat;lon;timestamp;pressure;altitude;pressure_sealevel;temperature;humidity
75867;BME280;64513;56.258;43.980;2022-12-07T00:01:31;101525.33;;;-3.23;61.13
75867;BME280;64513;56.258;43.980;2022-12-07T00:03:57;101516.75;;;-3.24;61.52
75867;BME280;64513;56.258;43.980;2022-12-07T00:06:44;101520.02;;;-3.22;61.48
75867;BME280;64513;56.258;43.980;2022-12-07T00:09:10;101507.89;;;-3.21;61.14
75867;BME280;64513;56.258;43.980;2022-12-07T00:11:35;101519.05;;;-3.21;61.02
75867;BME280;64513;56.258;43.980;2022-12-07T00:14:03;101520.69;;;-3.20;61.50
75867;BME280;64513;56.258;43.980;2022-12-07T00:16:29;101525.86;;;-3.20;61.71
75867;BME280;64513;56.258;43.980;2022-12-07T00:18:54;101511.97;;;-3.19;61.79
75867;BME280;64513;56.258;43.980;2022-12-07T00:23:46;101506.80;;;-3.19;61.79
75867;BME280;64513;56.258;43.980;2022-12-07T00:28:58;101511.69;;;-3.15;61.82
75867;BME280;64513;56.258;43.980;2022-12-07T00:31:26;101510.05;;;-3.16;61.51
75867;BME280;64513;56.258;43.980;2022-12-07T00:33:50;101510.34;;;-3.20;61.24
75867;BME280;64513;56.258;43.980;2022-12-07T00:36:17;101505.16;;;-3.20;61.29
75867;BME280;64513;56.258;43.980;2022-12-07T00:38:42;101505.30;;;-3.21;60.92
75867;BME280;64513;56.258;43.980;2022-12-07T00:41:38;101507.08;;;-3.22;61.46
75867;BME280;64513;56.258;43.980;2022-12-07T00:43:34;101509.52;;;-3.20;62.70
75867;BME280;64513;56.258;43.980;2022-12-07T00:45:58;101498.36;;;-3.21;61.57
75867;BME280;64513;56.258;43.980;2022-12-07T00:48:23;101506.80;;;-3.19;62.00
75867;BME280;64513;56.258;43.980;2022-12-07T00:50:47;101509.09;;;-3.15;62.64
75867;BME280;64513;56.258;43.980;2022-12-07T00:53:12;101501.16;;;-3.14;61.58
75867;BME280;64513;56.258;43.980;2022-12-07T00:55:36;101507.83;;;-3.11;62.02
75867;BME280;64513;56.258;43.980;2022-12-07T00:58:00;101515.45;;;-3.10;62.36
75867;BME280;64513;56.258;43.980;2022-12-07T01:00:25;101512.05;;;-3.10;62.01
75867;BME280;64513;56.258;43.980;2022-12-07T01:02:49;101502.37;;;-3.08;62.47
75867;BME280;64513;56.258;43.980;2022-12-07T01:05:14;101502.09;;;-3.05;62.26
75867;BME280;64513;56.258;43.980;2022-12-07T01:07:38;101507.94;;;-3.03;63.48
75867;BME280;64513;56.258;43.980;2022-12-07T01:10:02;101506.70;;;-2.99;63.59
75867;BME280;64513;56.258;43.980;2022-12-07T01:12:27;101505.56;;;-2.97;63.84
75867;BME280;64513;56.258;43.980;2022-12-07T01:14:51;101503.94;;;-2.98;62.82
75867;BME280;64513;56.258;43.980;2022-12-07T01:17:15;101504.11;;;-2.99;61.62
75867;BME280;64513;56.258;43.980;2022-12-07T01:19:39;101511.87;;;-2.99;62.61
75867;BME280;64513;56.258;43.980;2022-12-07T01:22:03;101506.70;;;-2.99;61.47
75867;BME280;64513;56.258;43.980;2022-12-07T01:24:27;101513.78;;;-3.01;61.09
75867;BME280;64513;56.258;43.980;2022-12-07T01:26:51;101506.45;;;-3.06;61.57
75867;BME280;64513;56.258;43.980;2022-12-07T01:29:15;101509.84;;;-3.05;61.93
75867;BME280;64513;56.258;43.980;2022-12-07T01:31:40;101517.89;;;-3.08;61.29
75867;BME280;64513;56.258;43.980;2022-12-07T01:34:04;101513.00;;;-3.11;61.27
75867;BME280;64513;56.258;43.980;2022-12-07T01:36:48;101505.38;;;-3.13;61.71
75867;BME280;64513;56.258;43.980;2022-12-07T01:39:12;101512.19;;;-3.12;61.04
75867;BME280;64513;56.258;43.980;2022-12-07T01:41:39;101504.56;;;-3.13;61.08
75867;BME280;64513;56.258;43.980;2022-12-07T01:44:25;101505.70;;;-3.16;61.34
75867;BME280;64513;56.258;43.980;2022-12-07T01:49:57;101500.27;;;-3.23;60.84
75867;BME280;64513;56.258;43.980;2022-12-07T01:52:41;101497.82;;;-3.24;60.55
75867;BME280;64513;56.258;43.980;2022-12-07T01:55:09;101509.27;;;-3.27;60.05
75867;BME280;64513;56.258;43.980;2022-12-07T01:57:38;101502.46;;;-3.28;60.25
75867;BME280;64513;56.258;43.980;2022-12-07T02:00:04;101498.39;;;-3.30;59.95
75867;BME280;64513;56.258;43.980;2022-12-07T02:02:32;101498.55;;;-3.32;60.40
75867;BME280;64513;56.258;43.980;2022-12-07T02:04:56;101507.95;;;-3.31;60.12
75867;BME280;64513;56.258;43.980;2022-12-07T02:07:21;101500.33;;;-3.32;60.29
75867;BME280;64513;56.258;43.980;2022-12-07T02:09:47;101500.83;;;-3.29;59.98
75867;BME280;64513;56.258;43.980;2022-12-07T02:12:11;101508.17;;;-3.24;59.52
75867;BME280;64513;56.258;43.980;2022-12-07T02:14:36;101495.09;;;-3.23;59.93
75867;BME280;64513;56.258;43.980;2022-12-07T02:26:19;101509.27;;;-3.27;59.67
75867;BME280;64513;56.258;43.980;2022-12-07T02:41:00;101512.86;;;-3.37;60.25
75867;BME280;64513;56.258;43.980;2022-12-07T02:43:26;101500.89;;;-3.38;60.09
75867;BME280;64513;56.258;43.980;2022-12-07T02:45:54;101507.30;;;-3.42;60.38
75867;BME280;64513;56.258;43.980;2022-12-07T02:48:19;101509.74;;;-3.41;60.46
75867;BME280;64513;56.258;43.980;2022-12-07T02:51:04;101503.61;;;-3.40;60.48
75867;BME280;64513;56.258;43.980;2022-12-07T02:53:48;101508.78;;;-3.40;60.25
75867;BME280;64513;56.258;43.980;2022-12-07T03:16:30;101522.45;;;-3.47;59.96
75867;BME280;64513;56.258;43.980;2022-12-07T03:18:57;101530.03;;;-3.46;60.74
75867;BME280;64513;56.258;43.980;2022-12-07T03:21:25;101525.67;;;-3.45;60.64
75867;BME280;64513;56.258;43.980;2022-12-07T03:23:51;101530.84;;;-3.45;60.28
75867;BME280;64513;56.258;43.980;2022-12-07T03:26:18;101509.34;;;-3.46;59.79
75867;BME280;64513;56.258;43.980;2022-12-07T03:28:47;101510.70;;;-3.42;60.29
75867;BME280;64513;56.258;43.980;2022-12-07T03:31:31;101510.70;;;-3.42;59.48
75867;BME280;64513;56.258;43.980;2022-12-07T03:42:50;101515.59;;;-3.39;59.75
75867;BME280;64513;56.258;43.980;2022-12-07T03:45:16;101517.50;;;-3.41;59.97
75867;BME280;64513;56.258;43.980;2022-12-07T03:47:45;101516.83;;;-3.43;59.49
75867;BME280;64513;56.258;43.980;2022-12-07T03:53:33;101527.45;;;-3.46;60.14
75867;BME280;64513;56.258;43.980;2022-12-07T03:58:09;101530.20;;;-3.47;60.01
75867;BME280;64513;56.258;43.980;2022-12-07T04:00:34;101525.98;;;-3.48;60.62
75867;BME280;64513;56.258;43.980;2022-12-07T04:02:58;101537.42;;;-3.51;60.52
75867;BME280;64513;56.258;43.980;2022-12-07T04:05:23;101533.88;;;-3.50;60.10
75867;BME280;64513;56.258;43.980;2022-12-07T04:07:48;101540.82;;;-3.50;60.69
75867;BME280;64513;56.258;43.980;2022-12-07T04:10:12;101539.33;;;-3.53;59.99
75867;BME280;64513;56.258;43.980;2022-12-07T04:12:37;101532.52;;;-3.54;59.91
75867;BME280;64513;56.258;43.980;2022-12-07T04:15:01;101534.43;;;-3.56;60.29
75867;BME280;64513;56.258;43.980;2022-12-07T04:17:26;101538.79;;;-3.57;60.26
75867;BME280;64513;56.258;43.980;2022-12-07T04:19:50;101539.74;;;-3.58;60.52
75867;BME280;64513;56.258;43.980;2022-12-07T04:22:15;101537.02;;;-3.56;60.03
75867;BME280;64513;56.258;43.980;2022-12-07T04:24:39;101532.80;;;-3.57;60.16
75867;BME280;64513;56.258;43.980;2022-12-07T04:27:03;101544.78;;;-3.56;60.22
75867;BME280;64513;56.258;43.980;2022-12-07T04:29:27;101531.98;;;-3.58;59.94
75867;BME280;64513;56.258;43.980;2022-12-07T04:31:52;101543.14;;;-3.57;59.88
75867;BME280;64513;56.258;43.980;2022-12-07T04:34:17;101538.11;;;-3.59;60.10
75867;BME280;64513;56.258;43.980;2022-12-07T04:36:42;101534.84;;;-3.61;60.01
75867;BME280;64513;56.258;43.980;2022-12-07T04:39:07;101530.62;;;-3.62;59.89
75867;BME280;64513;56.258;43.980;2022-12-07T04:41:32;101539.51;;;-3.64;59.91
75867;BME280;64513;56.258;43.980;2022-12-07T04:44:16;101545.63;;;-3.65;59.95
75867;BME280;64513;56.258;43.980;2022-12-07T04:46:41;101540.73;;;-3.68;59.98
75867;BME280;64513;56.258;43.980;2022-12-07T04:49:05;101539.10;;;-3.69;59.82
75867;BME280;64513;56.258;43.980;2022-12-07T04:51:30;101544.41;;;-3.71;60.00
75867;BME280;64513;56.258;43.980;2022-12-07T04:53:55;101539.38;;;-3.72;59.65
75867;BME280;64513;56.258;43.980;2022-12-07T04:56:19;101538.70;;;-3.74;59.38
75867;BME280;64513;56.258;43.980;2022-12-07T04:58:45;101546.72;;;-3.77;59.54
75867;BME280;64513;56.258;43.980;2022-12-07T05:01:10;101548.80;;;-3.81;59.29
75867;BME280;64513;56.258;43.980;2022-12-07T05:03:35;101551.38;;;-3.81;59.68
75867;BME280;64513;56.258;43.980;2022-12-07T05:05:59;101548.66;;;-3.79;59.89
75867;BME280;64513;56.258;43.980;2022-12-07T05:08:23;101540.77;;;-3.78;60.20
75867;BME280;64513;56.258;43.980;2022-12-07T05:10:49;101548.36;;;-3.76;60.50
75867;BME280;64513;56.258;43.980;2022-12-07T05:13:13;101565.22;;;-3.72;60.84
75867;BME280;64513;56.258;43.980;2022-12-07T05:15:37;101558.02;;;-3.69;61.32
75867;BME280;64513;56.258;43.980;2022-12-07T05:18:01;101563.05;;;-3.67;60.40
75867;BME280;64513;56.258;43.980;2022-12-07T05:20:26;101560.46;;;-3.67;60.08
75867;BME280;64513;56.258;43.980;2022-12-07T05:22:50;101551.34;;;-3.71;59.32
75867;BME280;64513;56.258;43.980;2022-12-07T05:25:14;101568.08;;;-3.75;59.48
75867;BME280;64513;56.258;43.980;2022-12-07T05:27:38;101566.89;;;-3.81;59.34
75867;BME280;64513;56.258;43.980;2022-12-07T05:30:03;101558.73;;;-3.86;59.68
75867;BME280;64513;56.258;43.980;2022-12-07T05:32:28;101559.81;;;-3.89;59.90
75867;BME280;64513;56.258;43.980;2022-12-07T05:34:52;101561.44;;;-3.87;59.83
75867;BME280;64513;56.258;43.980;2022-12-07T05:37:16;101560.49;;;-3.86;59.83
75867;BME280;64513;56.258;43.980;2022-12-07T05:39:40;101558.73;;;-3.86;59.60
75867;BME280;64513;56.258;43.980;2022-12-07T05:42:05;101565.53;;;-3.85;59.79
75867;BME280;64513;56.258;43.980;2022-12-07T05:44:49;101565.66;;;-3.86;59.71
75867;BME280;64513;56.258;43.980;2022-12-07T05:47:14;101566.61;;;-3.87;59.70
75867;BME280;64513;56.258;43.980;2022-12-07T05:49:38;101557.50;;;-3.92;59.62
75867;BME280;64513;56.258;43.980;2022-12-07T05:52:04;101552.20;;;-3.90;59.69
75867;BME280;64513;56.258;43.980;2022-12-07T05:54:29;101561.71;;;-3.91;59.97
75867;BME280;64513;56.258;43.980;2022-12-07T05:56:53;101559.54;;;-3.85;59.86
75867;BME280;64513;56.258;43.980;2022-12-07T05:59:17;101551.65;;;-3.84;60.18
75867;BME280;64513;56.258;43.980;2022-12-07T06:01:43;101542.95;;;-3.83;59.86
75867;BME280;64513;56.258;43.980;2022-12-07T06:04:07;101562.80;;;-3.83;59.17
75867;BME280;64513;56.258;43.980;2022-12-07T06:06:32;101558.45;;;-3.83;59.04
75867;BME280;64513;56.258;43.980;2022-12-07T06:08:56;101535.05;;;-3.81;58.83
75867;BME280;64513;56.258;43.980;2022-12-07T06:11:20;101559.00;;;-3.79;58.87
75867;BME280;64513;56.258;43.980;2022-12-07T06:14:04;101538.97;;;-3.77;58.73
75867;BME280;64513;56.258;43.980;2022-12-07T06:16:28;101560.63;;;-3.78;58.80
75867;BME280;64513;56.258;43.980;2022-12-07T06:18:52;101549.75;;;-3.82;58.73
75867;BME280;64513;56.258;43.980;2022-12-07T06:21:16;101550.56;;;-3.81;58.27
75867;BME280;64513;56.258;43.980;2022-12-07T06:23:40;101555.46;;;-3.78;59.13
75867;BME280;64513;56.258;43.980;2022-12-07T06:26:05;101565.50;;;-3.75;58.28
75867;BME280;64513;56.258;43.980;2022-12-07T06:28:29;101570.67;;;-3.75;58.32
75867;BME280;64513;56.258;43.980;2022-12-07T06:31:13;101561.14;;;-3.75;58.47
75867;BME280;64513;56.258;43.980;2022-12-07T06:33:37;101561.69;;;-3.71;58.74
75867;BME280;64513;56.258;43.980;2022-12-07T06:36:02;101557.88;;;-3.67;59.00
75867;BME280;64513;56.258;43.980;2022-12-07T06:38:26;101559.23;;;-3.63;59.19
75867;BME280;64513;56.258;43.980;2022-12-07T06:40:50;101559.61;;;-3.58;59.09
75867;BME280;64513;56.258;43.980;2022-12-07T06:43:14;101555.12;;;-3.56;58.87
75867;BME280;64513;56.258;43.980;2022-12-07T06:45:38;101564.23;;;-3.52;58.67
75867;BME280;64513;56.258;43.980;2022-12-07T06:48:04;101552.94;;;-3.51;58.74
75867;BME280;64513;56.258;43.980;2022-12-07T06:50:28;101560.28;;;-3.46;58.93
75867;BME280;64513;56.258;43.980;2022-12-07T06:52:53;101547.86;;;-3.43;58.46
75867;BME280;64513;56.258;43.980;2022-12-07T06:55:17;101557.52;;;-3.35;59.15
75867;BME280;64513;56.258;43.980;2022-12-07T06:57:41;101558.05;;;-3.32;58.91
75867;BME280;64513;56.258;43.980;2022-12-07T07:00:06;101566.45;;;-3.30;58.20
75867;BME280;64513;56.258;43.980;2022-12-07T07:02:30;101560.33;;;-3.29;58.26
75867;BME280;64513;56.258;43.980;2022-12-07T07:04:54;101561.28;;;-3.30;58.86
75867;BME280;64513;56.258;43.980;2022-12-07T07:07:18;101563.88;;;-3.30;58.98
75867;BME280;64513;56.258;43.980;2022-12-07T07:09:43;101561.69;;;-3.25;59.09
75867;BME280;64513;56.258;43.980;2022-12-07T07:12:07;101565.91;;;-3.24;58.82
75867;BME280;64513;56.258;43.980;2022-12-07T07:14:31;101571.08;;;-3.24;59.16
75867;BME280;64513;56.258;43.980;2022-12-07T07:16:55;101569.30;;;-3.23;57.98
75867;BME280;64513;56.258;43.980;2022-12-07T07:19:19;101569.45;;;-3.25;58.47
75867;BME280;64513;56.258;43.980;2022-12-07T07:21:44;101579.52;;;-3.22;58.47
75867;BME280;64513;56.258;43.980;2022-12-07T07:24:08;101580.19;;;-3.20;58.67
75867;BME280;64513;56.258;43.980;2022-12-07T07:26:32;101571.34;;;-3.17;59.03
75867;BME280;64513;56.258;43.980;2022-12-07T07:28:56;101573.78;;;-3.15;58.15
75867;BME280;64513;56.258;43.980;2022-12-07T07:31:20;101578.95;;;-3.15;57.94
75867;BME280;64513;56.258;43.980;2022-12-07T07:33:46;101582.19;;;-3.13;57.90
75867;BME280;64513;56.258;43.980;2022-12-07T07:36:10;101583.82;;;-3.12;57.92
75867;BME280;64513;56.258;43.980;2022-12-07T07:38:34;101584.78;;;-3.13;57.51
75867;BME280;64513;56.258;43.980;2022-12-07T07:40:59;101579.77;;;-3.15;57.68
75867;BME280;64513;56.258;43.980;2022-12-07T07:43:23;101580.56;;;-3.14;57.43
75867;BME280;64513;56.258;43.980;2022-12-07T07:45:47;101575.38;;;-3.14;57.66
75867;BME280;64513;56.258;43.980;2022-12-07T07:48:12;101573.61;;;-3.14;57.90
75867;BME280;64513;56.258;43.980;2022-12-07T07:50:36;101571.84;;;-3.13;58.08
75867;BME280;64513;56.258;43.980;2022-12-07T07:53:00;101571.56;;;-3.10;58.40
75867;BME280;64513;56.258;43.980;2022-12-07T07:55:24;101568.02;;;-3.09;57.56
75867;BME280;64513;56.258;43.980;2022-12-07T07:57:48;101567.88;;;-3.08;57.40
75867;BME280;64513;56.258;43.980;2022-12-07T08:00:14;101571.28;;;-3.07;57.89
75867;BME280;64513;56.258;43.980;2022-12-07T08:02:39;101577.81;;;-3.03;57.69
75867;BME280;64513;56.258;43.980;2022-12-07T08:05:04;101570.72;;;-3.01;57.54
75867;BME280;64513;56.258;43.980;2022-12-07T08:07:29;101566.05;;;-2.98;58.05
75867;BME280;64513;56.258;43.980;2022-12-07T08:09:53;101578.84;;;-2.96;57.74
75867;BME280;64513;56.258;43.980;2022-12-07T08:12:17;101576.12;;;-2.95;57.49
75867;BME280;64513;56.258;43.980;2022-12-07T08:14:41;101577.33;;;-2.89;57.57
75867;BME280;64513;56.258;43.980;2022-12-07T08:17:05;101569.28;;;-2.86;57.84
75867;BME280;64513;56.258;43.980;2022-12-07T08:19:30;101567.36;;;-2.84;57.71
75867;BME280;64513;56.258;43.980;2022-12-07T08:21:54;101565.42;;;-2.82;57.50
75867;BME280;64513;56.258;43.980;2022-12-07T08:24:19;101574.67;;;-2.79;56.94
75867;BME280;64513;56.258;43.980;2022-12-07T08:26:43;101580.39;;;-2.76;57.20
75867;BME280;64513;56.258;43.980;2022-12-07T08:29:07;101571.95;;;-2.78;56.91
75867;BME280;64513;56.258;43.980;2022-12-07T08:31:32;101573.58;;;-2.77;57.45
75867;BME280;64513;56.258;43.980;2022-12-07T08:33:56;101567.44;;;-2.76;57.23
75867;BME280;64513;56.258;43.980;2022-12-07T08:36:21;101569.75;;;-2.73;57.01
75867;BME280;64513;56.258;43.980;2022-12-07T08:38:46;101577.23;;;-2.70;57.10
75867;BME280;64513;56.258;43.980;2022-12-07T08:41:10;101562.66;;;-2.71;57.76
75867;BME280;64513;56.258;43.980;2022-12-07T08:43:35;101566.55;;;-2.67;57.36
75867;BME280;64513;56.258;43.980;2022-12-07T08:49:22;101564.20;;;-2.60;56.81
75867;BME280;64513;56.258;43.980;2022-12-07T08:51:13;101567.47;;;-2.58;56.99
75867;BME280;64513;56.258;43.980;2022-12-07T08:53:38;101544.30;;;-2.60;56.89
75867;BME280;64513;56.258;43.980;2022-12-07T08:56:04;101568.58;;;-2.61;56.60
75867;BME280;64513;56.258;43.980;2022-12-07T08:58:28;101572.13;;;-2.62;56.54
75867;BME280;64513;56.258;43.980;2022-12-07T09:00:53;101571.30;;;-2.62;56.67
75867;BME280;64513;56.258;43.980;2022-12-07T09:03:18;101578.93;;;-2.61;56.64
75867;BME280;64513;56.258;43.980;2022-12-07T09:05:42;101566.94;;;-2.62;56.71
75867;BME280;64513;56.258;43.980;2022-12-07T09:08:08;101575.67;;;-2.63;56.63
75867;BME280;64513;56.258;43.980;2022-12-07T09:10:32;101576.63;;;-2.64;56.48
75867;BME280;64513;56.258;43.980;2022-12-07T09:12:57;101564.95;;;-2.68;56.20
75867;BME280;64513;56.258;43.980;2022-12-07T09:15:23;101573.15;;;-2.72;56.04
75867;BME280;64513;56.258;43.980;2022-12-07T09:17:47;101577.94;;;-2.77;56.14
75867;BME280;64513;56.258;43.980;2022-12-07T09:20:11;101570.77;;;-2.84;56.11
75867;BME280;64513;56.258;43.980;2022-12-07T09:22:36;101564.92;;;-2.86;56.76
75867;BME280;64513;56.258;43.980;2022-12-07T09:25:00;101570.59;;;-2.82;56.42
75867;BME280;64513;56.258;43.980;2022-12-07T09:27:26;101570.03;;;-2.76;56.47
75867;BME280;64513;56.258;43.980;2022-12-07T09:29:50;101573.83;;;-2.70;56.74
75867;BME280;64513;56.258;43.980;2022-12-07T09:32:15;101566.94;;;-2.62;57.17
75867;BME280;64513;56.258;43.980;2022-12-07T09:34:39;101564.45;;;-2.54;56.66
75867;BME280;64513;56.258;43.980;2022-12-07T09:37:03;101565.09;;;-2.52;56.48
75867;BME280;64513;56.258;43.980;2022-12-07T09:39:28;101574.20;;;-2.48;57.28
75867;BME280;64513;56.258;43.980;2022-12-07T09:41:52;101570.37;;;-2.43;56.64
75867;BME280;64513;56.258;43.980;2022-12-07T09:44:39;101565.92;;;-2.33;57.95
75867;BME280;64513;56.258;43.980;2022-12-07T09:47:03;101565.05;;;-2.24;58.08
75867;BME280;64513;56.258;43.980;2022-12-07T09:49:29;101567.03;;;-2.18;58.43
75867;BME280;64513;56.258;43.980;2022-12-07T09:54:58;101567.25;;;-2.12;57.84
75867;BME280;64513;56.258;43.980;2022-12-07T10:03:13;101561.92;;;-2.10;56.80
75867;BME280;64513;56.258;43.980;2022-12-07T10:05:40;101561.92;;;-2.10;56.40
75867;BME280;64513;56.258;43.980;2022-12-07T10:08:07;101552.52;;;-2.11;56.76
75867;BME280;64513;56.258;43.980;2022-12-07T10:10:33;101551.56;;;-2.10;56.81
75867;BME280;64513;56.258;43.980;2022-12-07T10:13:20;101546.38;;;-2.10;56.87
75867;BME280;64513;56.258;43.980;2022-12-07T10:18:50;101560.50;;;-2.04;56.90
75867;BME280;64513;56.258;43.980;2022-12-07T10:21:17;101552.57;;;-2.03;57.08
75867;BME280;64513;56.258;43.980;2022-12-07T10:24:21;101551.75;;;-2.03;56.75
75867;BME280;64513;56.258;43.980;2022-12-07T10:27:26;101547.05;;;-2.08;56.96
75867;BME280;64513;56.258;43.980;2022-12-07T10:30:07;101546.08;;;-2.07;56.82
75867;BME280;64513;56.258;43.980;2022-12-07T10:32:32;101540.08;;;-2.07;56.81
75867;BME280;64513;56.258;43.980;2022-12-07T10:34:48;101548.67;;;-2.07;56.92
75867;BME280;64513;56.258;43.980;2022-12-07T10:37:32;101549.64;;;-2.08;57.07
75867;BME280;64513;56.258;43.980;2022-12-07T10:39:58;101548.53;;;-2.05;56.92
75867;BME280;64513;56.258;43.980;2022-12-07T10:42:24;101548.20;;;-2.02;57.42
75867;BME280;64513;56.258;43.980;2022-12-07T10:44:50;101547.09;;;-2.00;56.94
75867;BME280;64513;56.258;43.980;2022-12-07T11:09:25;101528.16;;;-2.18;56.19
75867;BME280;64513;56.258;43.980;2022-12-07T11:37:38;101543.18;;;-2.75;57.20
75867;BME280;64513;56.258;43.980;2022-12-07T11:46:15;101530.73;;;-2.89;57.66
75867;BME280;64513;56.258;43.980;2022-12-07T11:51:46;101529.92;;;-2.90;57.51
75867;BME280;64513;56.258;43.980;2022-12-07T11:57:00;101529.00;;;-2.98;57.24
75867;BME280;64513;56.258;43.980;2022-12-07T12:00:16;101526.05;;;-3.03;57.58
75867;BME280;64513;56.258;43.980;2022-12-07T12:05:18;101530.84;;;-3.08;57.66
75867;BME280;64513;56.258;43.980;2022-12-07T12:07:44;101528.53;;;-3.11;57.57
75867;BME280;64513;56.258;43.980;2022-12-07T12:21:16;101524.79;;;-3.27;57.99
75867;BME280;64513;56.258;43.980;2022-12-07T12:27:07;101533.50;;;-3.28;57.95
75867;BME280;64513;56.258;43.980;2022-12-07T12:29:52;101527.01;;;-3.32;57.73
75867;BME280;64513;56.258;43.980;2022-12-07T12:32:20;101536.00;;;-3.36;58.00
75867;BME280;64513;56.258;43.980;2022-12-07T12:37:48;101533.02;;;-3.41;57.81
75867;BME280;64513;56.258;43.980;2022-12-07T12:43:00;101524.77;;;-3.54;57.49
75867;BME280;64513;56.258;43.980;2022-12-07T12:45:44;101521.10;;;-3.61;57.58
75867;BME280;64513;56.258;43.980;2022-12-07T12:48:29;101533.66;;;-3.66;57.39
75867;BME280;64513;56.258;43.980;2022-12-07T12:59:32;101525.30;;;-3.97;57.31
75867;BME280;64513;56.258;43.980;2022-12-07T13:05:16;101514.95;;;-4.07;57.51
75867;BME280;64513;56.258;43.980;2022-12-07T13:10:55;101516.33;;;-4.22;57.86
75867;BME280;64513;56.258;43.980;2022-12-07T13:15:51;101511.73;;;-4.28;58.28
75867;BME280;64513;56.258;43.980;2022-12-07T13:21:42;101508.73;;;-4.33;58.32
75867;BME280;64513;56.258;43.980;2022-12-07T13:24:08;101493.77;;;-4.39;58.23
75867;BME280;64513;56.258;43.980;2022-12-07T13:26:54;101504.41;;;-4.42;58.33
75867;BME280;64513;56.258;43.980;2022-12-07T13:29:20;101506.56;;;-4.47;58.29
75867;BME280;64513;56.258;43.980;2022-12-07T13:34:50;101509.81;;;-4.55;58.52
75867;BME280;64513;56.258;43.980;2022-12-07T13:37:34;101493.12;;;-4.61;58.56
75867;BME280;64513;56.258;43.980;2022-12-07T13:40:00;101497.86;;;-4.66;58.53
75867;BME280;64513;56.258;43.980;2022-12-07T13:42:27;101501.94;;;-4.73;58.56
75867;BME280;64513;56.258;43.980;2022-12-07T13:44:52;101496.36;;;-4.78;58.73
75867;BME280;64513;56.258;43.980;2022-12-07T13:52:48;101498.65;;;-4.84;58.73
75867;BME280;64513;56.258;43.980;2022-12-07T13:55:14;101511.02;;;-4.88;58.79
75867;BME280;64513;56.258;43.980;2022-12-07T13:57:40;101511.28;;;-4.91;58.78
75867;BME280;64513;56.258;43.980;2022-12-07T14:00:13;101519.02;;;-4.91;58.91
75867;BME280;64513;56.258;43.980;2022-12-07T14:02:34;101507.07;;;-4.92;58.73
75867;BME280;64513;56.258;43.980;2022-12-07T14:08:05;101502.17;;;-4.95;58.83
75867;BME280;64513;56.258;43.980;2022-12-07T14:13:37;101497.95;;;-4.96;58.75
75867;BME280;64513;56.258;43.980;2022-12-07T14:16:05;101507.33;;;-4.95;58.71
75867;BME280;64513;56.258;43.980;2022-12-07T14:18:49;101498.91;;;-4.97;58.68
75867;BME280;64513;56.258;43.980;2022-12-07T14:21:16;101502.30;;;-4.97;58.58
75867;BME280;64513;56.258;43.980;2022-12-07T14:23:41;101505.95;;;-4.99;58.43
75867;BME280;64513;56.258;43.980;2022-12-07T14:26:26;101498.34;;;-5.01;58.49
75867;BME280;64513;56.258;43.980;2022-12-07T14:28:50;101488.16;;;-5.02;58.52
75867;BME280;64513;56.258;43.980;2022-12-07T14:31:17;101489.39;;;-5.06;58.39
75867;BME280;64513;56.258;43.980;2022-12-07T14:33:42;101492.92;;;-5.07;58.48
75867;BME280;64513;56.258;43.980;2022-12-07T14:36:41;101492.79;;;-5.06;58.59
75867;BME280;64513;56.258;43.980;2022-12-07T14:38:34;101496.71;;;-5.02;58.47
75867;BME280;64513;56.258;43.980;2022-12-07T14:40:58;101491.55;;;-5.02;58.46
75867;BME280;64513;56.258;43.980;2022-12-07T14:43:42;101481.36;;;-5.03;58.42
75867;BME280;64513;56.258;43.980;2022-12-07T14:46:06;101488.84;;;-5.00;58.29
75867;BME280;64513;56.258;43.980;2022-12-07T14:48:30;101478.78;;;-5.03;58.31
75867;BME280;64513;56.258;43.980;2022-12-07T14:50:54;101488.31;;;-5.04;58.05
75867;BME280;64513;56.258;43.980;2022-12-07T14:53:21;101498.08;;;-5.07;58.16
75867;BME280;64513;56.258;43.980;2022-12-07T14:55:46;101496.44;;;-5.08;58.14
75867;BME280;64513;56.258;43.980;2022-12-07T14:58:30;101475.25;;;-5.12;57.99
75867;BME280;64513;56.258;43.980;2022-12-07T15:00:54;101466.56;;;-5.20;57.83
75867;BME280;64513;56.258;43.980;2022-12-07T15:03:18;101477.39;;;-5.26;57.82
75867;BME280;64513;56.258;43.980;2022-12-07T15:05:43;101478.59;;;-5.31;57.80
75867;BME280;64513;56.258;43.980;2022-12-07T15:08:41;101480.77;;;-5.36;57.91
75867;BME280;64513;56.258;43.980;2022-12-07T15:10:35;101464.18;;;-5.43;57.93
75867;BME280;64513;56.258;43.980;2022-12-07T15:13:02;101467.01;;;-5.46;58.05
75867;BME280;64513;56.258;43.980;2022-12-07T15:15:47;101477.58;;;-5.49;58.00
75867;BME280;64513;56.258;43.980;2022-12-07T15:18:12;101475.13;;;-5.50;57.89
75867;BME280;64513;56.258;43.980;2022-12-07T15:20:36;101465.91;;;-5.53;57.95
75867;BME280;64513;56.258;43.980;2022-12-07T15:23:00;101473.91;;;-5.56;57.90
75867;BME280;64513;56.258;43.980;2022-12-07T15:25:24;101471.58;;;-5.59;57.91
75867;BME280;64513;56.258;43.980;2022-12-07T15:27:48;101470.77;;;-5.59;57.92
75867;BME280;64513;56.258;43.980;2022-12-07T15:30:13;101476.73;;;-5.59;58.05
75867;BME280;64513;56.258;43.980;2022-12-07T15:32:37;101475.09;;;-5.60;57.98
75867;BME280;64513;56.258;43.980;2022-12-07T15:35:01;101469.00;;;-5.59;57.96
75867;BME280;64513;56.258;43.980;2022-12-07T15:37:26;101487.30;;;-5.62;58.06
75867;BME280;64513;56.258;43.980;2022-12-07T15:39:50;101474.41;;;-5.62;58.06
75867;BME280;64513;56.258;43.980;2022-12-07T15:42:15;101476.17;;;-5.62;58.22
75867;BME280;64513;56.258;43.980;2022-12-07T15:44:39;101467.50;;;-5.61;58.11
75867;BME280;64513;56.258;43.980;2022-12-07T15:47:23;101466.42;;;-5.59;58.22
75867;BME280;64513;56.258;43.980;2022-12-07T15:49:48;101465.23;;;-5.55;58.23
75867;BME280;64513;56.258;43.980;2022-12-07T15:52:12;101469.16;;;-5.51;58.28
75867;BME280;64513;56.258;43.980;2022-12-07T15:54:37;101469.59;;;-5.46;58.28
75867;BME280;64513;56.258;43.980;2022-12-07T15:57:01;101472.60;;;-5.41;58.13